Ireland METAR reports

 

EIDW - Dublin Airport, Ireland
Distance from station: WNW 13km
Updated: 27/04/2018 05:30
Mostly cloudy
Mostly cloudy
 Wind from NE
Wind: NE 9 km/h
Temperature: 5°C
Wind Chill: 3°C
Dew Point: 3°C
Humidity: 87%
Barometer: 1008 hPa
Clouds: Mostly cloudy
Visibility: 10 km
Cloud details: Few Clouds 762 m
Partly cloudy 1219 m
Mostly cloudy 7620 m
2018/04/27 04:30 EIDW 270430Z 04005KT 9999 FEW025 SCT040 BKN250 05/03 Q1008 NOSIG
EIME - Casement (mil), Ireland
Distance from station: WSW 26km
Updated: 27/04/2018 05:00
Overcast
Overcast
 Wind from ENE
Wind: ENE 6 km/h
Temperature: 5°C
Dew Point: 4°C
Humidity: 93%
Barometer: 1008 hPa
Clouds: Overcast
Visibility: 10 km
Cloud details: Few Clouds 1128 m
Partly cloudy 1829 m
Overcast 2438 m
2018/04/27 04:00 EIME 270400Z 06003KT 9999 FEW037 SCT060 OVC080 05/04 Q1008
EGAC - Belfast Harbour, United Kingdom
Distance from station: N 140km
Updated: 27/04/2018 05:20
Clear
Clear
 Wind from SSE
Wind: SSE 4 km/h
Temperature: 1°C
Dew Point: 1°C
Humidity: 100%
Barometer: 1010 hPa
Clouds: Clear
Visibility: 10 km
2018/04/27 04:20 EGAC 270420Z AUTO 15002KT 9999 NCD 01/01 Q1010
 
EGAA - Belfast/Aldergro, United Kingdom
Distance from station: N 141km
Updated: 27/04/2018 05:20
Clear
Clear
 Wind from ESE
Wind: ESE 4 km/h
Temperature: -1°C
Dew Point: -2°C
Humidity: 93%
Barometer: 1010 hPa
Summary: Clear
Visibility: greater than 10 km
2018/04/27 04:20 EGAA 270420Z 12002KT CAVOK M01/M02 Q1010
EIWF - Waterford Arpt, Ireland
Distance from station: SSW 148km
Updated: 26/04/2018 20:30
NOT Current
Partly cloudy
Partly cloudy
 Wind from varies
Wind: varies 6 km/h
Temperature: 8°C
Dew Point: 5°C
Humidity: 82%
Barometer: 1013 hPa
Clouds: Partly cloudy
Visibility: 10 km
Cloud details: Partly cloudy 1341 m
2018/04/26 19:30 EIWF 261930Z VRB03KT 9999 SCT044 08/05 Q1013
EIKN - Connaught Apt, Ireland
Distance from station: WNW 191km
Updated: 26/04/2018 19:30
NOT Current
Partly cloudy
Partly cloudy
 Wind from NW
Wind: NW 11 km/h
Temperature: 7°C
Wind Chill: 5°C
Dew Point: 4°C
Humidity: 81%
Barometer: 1012 hPa
Clouds: Partly cloudy
Visibility: 10 km
Cloud details: Few Clouds 610 m
Partly cloudy 7620 m
2018/04/26 18:30 EIKN 261830Z 32006KT 290V360 9999 FEW020CB SCT250 07/04 Q1012 NOSIG
 
EISG - Sligo Arpt, Ireland
Distance from station: WNW 195km
Updated: 26/04/2018 21:30
NOT Current
Clear
Clear
 Wind from WNW
Wind: WNW 7 km/h
Temperature: 7°C
Wind Chill: 6°C
Dew Point: 3°C
Humidity: 76%
Barometer: 1012 hPa
Summary: Clear
Visibility: greater than 10 km
2018/04/26 20:30 EISG 262030Z 30004KT CAVOK 07/03 Q1012
EGAE - Eglinton/Londond, United Kingdom
Distance from station: NNW 198km
Updated: 26/04/2018 20:50
NOT Current
Few Clouds
Few Clouds
 Wind from W
Wind: W 15 km/h
Temperature: 7°C
Wind Chill: 4°C
Dew Point: 3°C
Humidity: 76%
Barometer: 1011 hPa
Clouds: Few Clouds
Visibility: 10 km
Cloud details: Few Clouds 975 m
2018/04/26 19:50 EGAE 261950Z 26008KT 9999 FEW032 07/03 Q1011
EINN - Shannon Airport, Ireland
Distance from station: WSW 204km
Updated: 27/04/2018 05:30
Mostly cloudy
Mostly cloudy
 Wind from NNW
Wind: NNW 9 km/h
Temperature: 6°C
Wind Chill: 4°C
Dew Point: 4°C
Humidity: 87%
Barometer: 1008 hPa
Clouds: Mostly cloudy
Visibility: 10 km
Cloud details: Few Clouds 610 m
Partly cloudy 1067 m
Mostly cloudy 2134 m
2018/04/27 04:30 EINN 270430Z 33005KT 9999 FEW020 SCT035 BKN070 06/04 Q1008 NOSIG
 
EICK - Cork Arpt/Corcai, Ireland
Distance from station: SW 234km
Updated: 27/04/2018 05:30
Light rain, Mostly cloudy
Light rain, Mostly cloudy
 Wind from ENE
Wind: ENE 20 km/h
Temperature: 5°C
Wind Chill: 1°C
Dew Point: 5°C
Humidity: 100%
Barometer: 1006 hPa
Summary: Light rain
Clouds: Mostly cloudy
Visibility: 10 km
Cloud details: Mostly cloudy 122 m
Mostly cloudy 610 m
2018/04/27 04:30 EICK 270430Z 06011KT 9999 -RA BKN004 BKN020 05/05 Q1006 TEMPO 4000